Terminal Aerodrome Forecast
Issued by NWS

Home | Current Version | Previous Version | Text Only | Print | Product List | Glossary On
Versions: 1 2 3 4 5 6 7 8 9 10 11 12 13 14 15 16 17 18 19 20 21
000
FTAK31 PAJN 260500
TAFAYA
TAF
PAYA 260526Z 2606/2706 00000KT P6SM VCSH FEW050 BKN060 OVC150
     FM261600 09003KT P6SM VCSH SCT040 OVC050
     FM262000 08006KT 5SM -RA BR BKN025 OVC040
      AMD LTD TO CLD VIS AND WIND 2606/2610=

USA.gov is the U.S. government's official web portal to all federal, state and local government web resources and services.